Time;durP1;ratioP1;P1;durP2;ratioP2;P2;SDS_P1;SDS_P2;PMS_P1;PMS_P2;Temp;Humidity;BMP_temperature;BMP_pressure;BME280_temperature;BME280_humidity;BME280_pressure;Samples;Min_cycle;Max_cycle;Signal;HPM_P1;HPM_P2
2022/12/29 05:22:40;;;;;;;1.20;0.93;;;;;;;12.33;71.00;99550.19;5109134;27;20396;-67
2022/12/29 05:25:07;;;;;;;4.40;1.00;;;;;;;12.39;70.85;99544.84;5107925;28;20036;-67
2022/12/29 05:27:43;;;;;;;1.67;1.00;;;;;;;12.44;70.28;99537.03;5087274;28;20403;-67
2022/12/29 05:30:18;;;;;;;1.25;1.15;;;;;;;12.45;70.24;99535.19;5087835;28;20047;-68
2022/12/29 05:32:43;;;;;;;1.63;0.82;;;;;;;12.51;69.54;99537.03;5087613;28;20032;-68
2022/12/29 05:35:09;;;;;;;2.33;1.05;;;;;;;12.51;70.13;99542.38;5087942;28;20441;-68
2022/12/29 05:37:34;;;;;;;2.20;1.00;;;;;;;12.57;69.23;99514.88;5088045;28;20377;-67
2022/12/29 05:40:00;;;;;;;1.70;1.10;;;;;;;12.61;69.84;99534.81;5087692;28;20036;-67
2022/12/29 05:42:27;;;;;;;1.20;1.00;;;;;;;12.59;69.72;99542.22;5087701;28;20032;-67
2022/12/29 05:45:18;;;;;;;2.00;1.02;;;;;;;12.56;69.99;99544.47;5087504;28;20058;-67
2022/12/29 05:48:04;;;;;;;1.23;1.00;;;;;;;12.61;69.35;99552.69;5086998;28;20449;-67
2022/12/29 05:50:49;;;;;;;1.23;1.10;;;;;;;12.60;69.09;99554.56;5088663;28;20117;-66
2022/12/29 05:53:17;;;;;;;3.47;1.85;;;;;;;12.60;70.06;99527.84;5088615;28;20416;-66
2022/12/29 05:55:46;;;;;;;0.87;0.73;;;;;;;12.63;69.35;99553.31;5087283;28;20066;-67
2022/12/29 05:58:11;;;;;;;2.80;1.30;;;;;;;12.63;69.41;99569.34;5086971;28;20430;-64
2022/12/29 06:00:37;;;;;;;1.13;0.90;;;;;;;12.58;69.73;99556.59;5070470;28;20501;-66
2022/12/29 06:03:03;;;;;;;2.85;1.40;;;;;;;12.56;69.79;99545.28;5104307;28;20031;-66
2022/12/29 06:05:29;;;;;;;1.85;0.88;;;;;;;12.59;68.90;99550.25;5086884;28;20139;-66
2022/12/29 06:07:54;;;;;;;1.23;0.90;;;;;;;12.63;69.09;99555.97;5103843;28;20115;-67
2022/12/29 06:10:21;;;;;;;1.23;0.80;;;;;;;12.63;68.87;99558.66;5087019;28;20070;-65
2022/12/29 06:12:53;;;;;;;2.95;0.90;;;;;;;12.63;68.54;99550.63;5087168;28;20105;-65
2022/12/29 06:15:19;;;;;;;1.85;1.00;;;;;;;12.62;68.69;99560.50;5086886;28;20043;-65
2022/12/29 06:17:47;;;;;;;1.20;1.10;;;;;;;12.67;67.96;99562.56;5086642;28;20143;-64
2022/12/29 06:20:13;;;;;;;1.27;0.95;;;;;;;12.65;68.14;99553.91;5086925;28;20485;-66
2022/12/29 06:22:38;;;;;;;2.58;0.98;;;;;;;12.69;67.90;99558.66;5087028;28;20131;-67
2022/12/29 06:25:05;;;;;;;5.35;1.42;;;;;;;12.68;67.98;99559.69;5087007;28;20036;-66
2022/12/29 06:27:32;;;;;;;0.70;0.70;;;;;;;12.71;67.35;99555.78;5086496;28;20047;-66
2022/12/29 06:29:57;;;;;;;0.73;0.70;;;;;;;12.73;67.30;99557.25;5086976;28;20037;-68
2022/12/29 06:32:23;;;;;;;1.85;0.90;;;;;;;12.76;66.38;99537.28;5082651;28;20066;-67
2022/12/29 06:34:51;;;;;;;1.42;0.85;;;;;;;12.79;66.12;99536.06;5073220;28;20047;-67
2022/12/29 06:37:17;;;;;;;1.10;0.90;;;;;;;12.79;65.75;99517.38;5073176;28;20040;-66
2022/12/29 06:39:43;;;;;;;2.53;1.08;;;;;;;12.83;65.50;99523.94;5074748;28;20044;-65
2022/12/29 06:42:10;;;;;;;1.10;0.70;;;;;;;12.79;65.49;99528.06;5073033;28;20040;-65
2022/12/29 06:45:14;;;;;;;0.75;0.70;;;;;;;12.76;65.53;99518.59;5052038;28;20040;-66
2022/12/29 06:47:39;;;;;;;1.27;0.90;;;;;;;12.75;65.56;99515.09;5051874;28;20033;-65
2022/12/29 06:50:05;;;;;;;1.20;0.75;;;;;;;12.75;65.14;99515.09;5062282;28;20056;-66
2022/12/29 06:52:31;;;;;;;1.10;1.00;;;;;;;12.72;65.58;99512.03;5074297;28;20512;-64
2022/12/29 06:54:56;;;;;;;2.65;1.17;;;;;;;12.68;65.50;99516.94;5074320;28;20047;-66
2022/12/29 06:57:21;;;;;;;2.83;1.05;;;;;;;12.67;65.58;99507.28;5106619;28;20040;-65
2022/12/29 06:59:47;;;;;;;1.83;0.82;;;;;;;12.63;65.72;99519.41;5074379;28;20033;-66
2022/12/29 07:02:18;;;;;;;2.97;1.05;;;;;;;12.64;65.73;99520.22;5074253;28;20489;-65
2022/12/29 07:04:43;;;;;;;1.75;0.95;;;;;;;12.80;63.92;99513.66;5056442;28;20040;-65
2022/12/29 07:07:08;;;;;;;1.42;1.05;;;;;;;12.79;64.15;99512.03;5073976;28;20068;-64
2022/12/29 07:09:34;;;;;;;4.70;1.00;;;;;;;12.76;64.10;99523.94;5073755;28;20040;-66
2022/12/29 07:11:59;;;;;;;1.90;1.10;;;;;;;12.83;63.63;99518.59;5072683;28;20354;-64
2022/12/29 07:14:25;;;;;;;2.15;0.95;;;;;;;12.87;63.31;99520.66;5089920;28;20044;-64
2022/12/29 07:16:50;;;;;;;3.25;1.17;;;;;;;12.90;62.89;99530.09;5074295;28;20068;-62
2022/12/29 07:19:16;;;;;;;3.10;1.02;;;;;;;12.91;62.49;99529.06;5074233;28;20060;-65
2022/12/29 07:21:41;;;;;;;1.33;0.90;;;;;;;12.92;62.72;99528.88;5089224;28;20535;-67
2022/12/29 07:24:07;;;;;;;1.33;1.02;;;;;;;12.94;62.43;99534.84;5072330;28;20049;-66
2022/12/29 07:26:32;;;;;;;2.13;1.10;;;;;;;12.94;62.45;99528.66;5073227;28;20481;-70
2022/12/29 07:29:00;;;;;;;1.45;1.20;;;;;;;12.94;62.10;99534.03;5073068;28;20051;-69
2022/12/29 07:31:25;;;;;;;2.55;1.00;;;;;;;12.94;61.97;99521.47;5073279;28;20048;-69
2022/12/29 07:33:51;;;;;;;1.73;0.93;;;;;;;12.95;61.51;99523.13;5073199;28;20049;-68
2022/12/29 07:36:16;;;;;;;1.35;0.85;;;;;;;12.99;61.91;99534.22;5088619;28;20469;-69
2022/12/29 07:38:42;;;;;;;1.38;1.00;;;;;;;12.97;61.57;99534.41;5071439;28;20045;-69
2022/12/29 07:41:08;;;;;;;3.38;1.10;;;;;;;12.97;61.70;99531.75;5072986;28;20024;-70
2022/12/29 07:43:34;;;;;;;3.30;0.93;;;;;;;13.01;61.47;99540.19;5071334;28;20043;-70
2022/12/29 07:46:18;;;;;;;0.88;0.80;;;;;;;13.04;61.30;99531.78;5072837;28;20083;-69
2022/12/29 07:48:43;;;;;;;2.28;1.13;;;;;;;13.04;61.02;99529.91;5072571;28;20155;-70
2022/12/29 07:51:09;;;;;;;1.45;0.75;;;;;;;13.06;60.87;99540.41;5072682;28;20123;-69
2022/12/29 07:53:35;;;;;;;2.50;1.10;;;;;;;13.04;61.39;99550.47;5088183;28;20485;-70
2022/12/29 07:56:00;;;;;;;2.25;1.10;;;;;;;13.05;60.54;99546.78;5072587;28;20048;-69
2022/12/29 07:58:25;;;;;;;1.77;1.00;;;;;;;13.09;60.61;99552.50;5087882;28;20064;-70
2022/12/29 08:00:55;;;;;;;1.05;0.93;;;;;;;13.10;60.16;99567.53;5072536;28;20040;-70
2022/12/29 08:03:21;;;;;;;1.63;1.00;;;;;;;13.07;60.61;99558.06;5072725;28;20697;-68
2022/12/29 08:05:46;;;;;;;1.70;0.90;;;;;;;13.00;60.75;99541.22;5072468;28;20067;-69
2022/12/29 08:08:12;;;;;;;2.15;0.90;;;;;;;13.00;60.85;99562.59;5072045;28;20144;-67
2022/12/29 08:10:37;;;;;;;1.65;0.82;;;;;;;12.99;60.72;99561.78;5088149;28;20148;-68
2022/12/29 08:13:02;;;;;;;1.85;0.98;;;;;;;13.04;60.32;99575.38;5072358;28;20064;-68
2022/12/29 08:15:28;;;;;;;1.45;0.90;;;;;;;13.06;60.77;99572.47;5072203;28;20055;-68
2022/12/29 08:17:54;;;;;;;2.33;0.95;;;;;;;13.06;60.37;99577.81;5070343;28;20032;-68
2022/12/29 08:20:19;;;;;;;1.40;1.00;;;;;;;13.12;59.85;99585.03;5070879;28;20082;-69
2022/12/29 08:22:44;;;;;;;1.45;0.90;;;;;;;13.16;60.50;99591.59;5071960;28;20037;-69
2022/12/29 08:25:10;;;;;;;1.13;0.98;;;;;;;13.16;59.64;99580.06;5070539;28;20028;-69
2022/12/29 08:27:35;;;;;;;1.10;0.80;;;;;;;13.19;59.98;99593.88;5071552;28;20119;-69
2022/12/29 08:30:01;;;;;;;1.58;1.10;;;;;;;13.19;60.09;99596.53;5071851;28;20408;-69
2022/12/29 08:32:28;;;;;;;2.00;1.08;;;;;;;13.19;59.78;99601.91;5053915;28;20444;-69
2022/12/29 08:34:54;;;;;;;1.42;1.00;;;;;;;13.23;59.82;99597.78;5070670;28;20040;-70
2022/12/29 08:37:19;;;;;;;1.13;0.68;;;;;;;13.22;60.37;99604.16;5070215;28;20076;-69
2022/12/29 08:39:45;;;;;;;1.42;1.13;;;;;;;13.23;60.22;99599.66;5070606;28;20036;-69
2022/12/29 08:42:10;;;;;;;1.23;0.98;;;;;;;13.27;59.81;99600.88;5071820;28;20081;-70
2022/12/29 08:44:36;;;;;;;2.50;1.08;;;;;;;13.30;59.41;99593.28;5071601;28;20127;-69
2022/12/29 08:47:01;;;;;;;1.85;0.90;;;;;;;13.33;59.50;99599.25;5071464;28;20036;-68
2022/12/29 08:49:26;;;;;;;1.15;0.90;;;;;;;13.39;59.44;99601.09;5053658;28;20081;-69
2022/12/29 08:51:52;;;;;;;3.80;1.35;;;;;;;13.37;59.35;99595.97;5071995;28;20044;-68
2022/12/29 08:54:17;;;;;;;2.22;0.93;;;;;;;13.38;59.88;99596.78;5054270;28;20150;-69
2022/12/29 08:56:43;;;;;;;1.55;1.13;;;;;;;13.40;59.77;99621.47;5087994;28;20040;-69
2022/12/29 08:59:09;;;;;;;0.85;0.85;;;;;;;13.39;59.94;99609.94;5070655;28;20040;-69
2022/12/29 09:01:40;;;;;;;1.23;1.05;;;;;;;13.42;59.79;99600.66;5070307;28;20514;-68
2022/12/29 09:04:05;;;;;;;0.80;0.73;;;;;;;13.41;59.99;99613.22;5070663;28;20044;-68
2022/12/29 09:06:30;;;;;;;0.98;0.82;;;;;;;13.41;60.08;99612.41;5070225;28;20118;-69
2022/12/29 09:08:56;;;;;;;0.80;0.60;;;;;;;13.40;60.35;99600.06;5071648;28;20064;-69
2022/12/29 09:11:23;;;;;;;1.08;0.90;;;;;;;13.44;60.82;99607.47;5074166;28;20511;-69
2022/12/29 09:13:49;;;;;;;1.00;0.75;;;;;;;13.43;60.90;99602.31;5075354;28;20066;-70
2022/12/29 09:16:16;;;;;;;1.92;0.85;;;;;;;13.57;60.07;99609.31;5059450;28;20041;-69
2022/12/29 09:18:43;;;;;;;0.85;0.70;;;;;;;13.73;59.83;99610.72;5071492;28;20048;-70
2022/12/29 09:21:10;;;;;;;1.73;1.05;;;;;;;13.74;60.71;99623.88;5070139;28;20038;-70
2022/12/29 09:23:35;;;;;;;1.55;0.93;;;;;;;13.67;60.40;99614.22;5071802;28;20055;-70
2022/12/29 09:26:01;;;;;;;1.17;0.95;;;;;;;13.61;60.82;99615.88;5070388;28;20501;-71
2022/12/29 09:28:28;;;;;;;1.17;0.73;;;;;;;13.58;61.28;99627.00;5070171;28;20050;-71
2022/12/29 09:30:55;;;;;;;0.80;0.65;;;;;;;13.65;61.95;99618.97;5086651;28;20377;-70
2022/12/29 09:33:21;;;;;;;1.02;0.68;;;;;;;14.00;60.95;99628.34;5071355;28;20052;-70
2022/12/29 09:35:57;;;;;;;0.57;0.57;;;;;;;14.32;59.76;99626.59;5071193;28;20044;-71
2022/12/29 09:38:24;;;;;;;0.80;0.80;;;;;;;14.35;59.88;99622.69;5070965;28;20070;-71
2022/12/29 09:40:54;;;;;;;1.10;0.70;;;;;;;14.22;59.15;99625.44;5070505;28;20392;-71
2022/12/29 09:43:40;;;;;;;1.30;0.82;;;;;;;14.11;60.19;99642.97;5071325;28;20278;-71
2022/12/29 09:46:28;;;;;;;1.08;0.80;;;;;;;14.05;61.04;99636.59;5071310;28;20043;-68
2022/12/29 09:49:17;;;;;;;1.02;0.90;;;;;;;13.99;61.00;99639.28;5069702;28;20040;-69
2022/12/29 09:51:48;;;;;;;1.13;0.85;;;;;;;13.94;61.16;99636.41;5071361;28;20039;-70
2022/12/29 09:54:39;;;;;;;1.77;1.08;;;;;;;13.97;61.71;99641.34;5070963;28;20405;-70
2022/12/29 09:57:14;;;;;;;1.27;0.82;;;;;;;14.27;60.92;99652.38;5071001;28;20132;-70
2022/12/29 09:59:42;;;;;;;1.00;0.80;;;;;;;14.57;59.85;99652.72;5071116;28;20178;-70
2022/12/29 10:02:26;;;;;;;;;;;;;;;14.61;59.96;99665.47;5086958;28;20037;-70
2022/12/29 10:04:52;;;;;;;1.55;0.88;;;;;;;14.66;59.80;99654.09;5070176;28;19920;-70
2022/12/29 10:07:38;;;;;;;1.65;0.90;;;;;;;14.61;60.82;99662.81;5070099;28;20032;-70
2022/12/29 10:10:19;;;;;;;1.13;0.88;;;;;;;14.49;61.87;99669.84;5075254;28;20071;-70
2022/12/29 10:13:36;;;;;;;1.88;0.88;;;;;;;14.34;61.23;99667.41;5074758;28;20036;-70
2022/12/29 10:16:22;;;;;;;1.60;1.00;;;;;;;14.25;62.30;99673.22;5073216;28;20045;-70
2022/12/29 10:18:59;;;;;;;0.90;0.80;;;;;;;14.18;62.31;99681.25;5073130;28;20497;-71
2022/12/29 10:22:02;;;;;;;2.40;0.80;;;;;;;14.12;63.41;99684.78;5074612;28;20037;-70
2022/12/29 10:24:30;;;;;;;2.63;1.13;;;;;;;14.05;64.53;99679.44;5074473;28;20462;-70
2022/12/29 10:26:57;;;;;;;;;;;;;;;14.00;65.62;99675.72;5074533;28;20028;-70
2022/12/29 10:29:39;;;;;;;1.75;0.90;;;;;;;14.01;66.16;99682.72;5072716;28;19912;-70
2022/12/29 10:32:16;;;;;;;1.33;0.82;;;;;;;14.03;65.42;99680.69;5074107;28;20040;-71
2022/12/29 10:34:47;;;;;;;2.03;0.80;;;;;;;14.33;63.88;99686.34;5074302;28;20055;-71
2022/12/29 10:37:28;;;;;;;0.80;0.65;;;;;;;14.58;62.72;99671.25;5072716;28;20065;-71
2022/12/29 10:39:55;;;;;;;1.05;0.77;;;;;;;14.75;62.64;99681.50;5072806;28;20036;-71
2022/12/29 10:42:23;;;;;;;1.17;0.80;;;;;;;14.71;62.73;99685.63;5074035;28;20115;-71
2022/12/29 10:44:49;;;;;;;1.10;0.80;;;;;;;14.58;63.10;99679.28;5074269;28;20033;-70
2022/12/29 10:47:23;;;;;;;0.60;0.60;;;;;;;14.37;63.95;99680.38;5072391;28;20543;-70
2022/12/29 10:49:49;;;;;;;0.93;0.77;;;;;;;14.42;64.41;99676.25;5072417;28;20040;-70
2022/12/29 10:52:17;;;;;;;4.97;1.00;;;;;;;14.36;64.09;99657.31;5073838;28;20044;-69
2022/12/29 10:55:20;;;;;;;;;;;;;;;14.24;64.56;99677.75;5073027;28;20126;-68
2022/12/29 10:57:47;;;;;;;0.82;0.82;;;;;;;14.20;65.35;99676.50;5051152;28;19932;-69
2022/12/29 11:00:16;;;;;;;1.23;0.90;;;;;;;14.13;65.34;99673.03;5034725;28;20090;-69
2022/12/29 11:02:47;;;;;;;2.30;0.70;;;;;;;14.04;65.45;99676.97;5064105;28;20057;-69
2022/12/29 11:05:25;;;;;;;2.47;0.77;;;;;;;13.99;66.19;99682.94;5073202;28;20040;-70
2022/12/29 11:07:55;;;;;;;1.75;1.20;;;;;;;14.04;65.75;99675.13;5073471;28;20040;-69
2022/12/29 11:10:34;;;;;;;1.10;0.90;;;;;;;13.99;65.66;99669.56;5073526;28;20036;-69
2022/12/29 11:13:03;;;;;;;1.45;0.98;;;;;;;13.81;66.75;99683.59;5073420;28;20435;-69
2022/12/29 11:15:45;;;;;;;0.70;0.70;;;;;;;13.87;66.63;99684.59;5055316;28;20555;-70
2022/12/29 11:18:24;;;;;;;1.92;1.10;;;;;;;13.82;66.57;99687.94;5087729;28;20040;-69
2022/12/29 11:21:00;;;;;;;1.65;1.10;;;;;;;13.90;66.53;99683.38;5073330;28;20024;-70
2022/12/29 11:23:30;;;;;;;1.80;0.70;;;;;;;13.98;66.81;99688.50;5073264;28;20067;-70
2022/12/29 11:26:15;;;;;;;2.60;1.02;;;;;;;14.01;66.58;99686.22;5073188;28;20486;-70
2022/12/29 11:28:44;;;;;;;0.65;0.52;;;;;;;14.02;65.97;99695.13;5071576;28;20455;-70
2022/12/29 11:31:15;;;;;;;1.02;0.80;;;;;;;14.03;66.36;99683.38;5071798;28;20032;-70
2022/12/29 11:33:40;;;;;;;1.48;0.75;;;;;;;14.04;65.94;99699.22;5073132;28;20045;-69
2022/12/29 11:36:14;;;;;;;1.38;0.90;;;;;;;14.01;65.89;99696.94;5073455;28;20074;-69
2022/12/29 11:38:45;;;;;;;1.77;1.27;;;;;;;14.04;67.14;99696.53;5071440;28;20132;-69
2022/12/29 11:41:18;;;;;;;1.00;0.90;;;;;;;14.03;67.21;99691.41;5073191;28;20033;-70
2022/12/29 11:43:44;;;;;;;1.45;0.95;;;;;;;14.04;65.87;99685.81;5072813;28;20090;-70
2022/12/29 11:46:20;;;;;;;1.92;0.95;;;;;;;14.04;66.40;99682.31;5072727;28;20036;-69
2022/12/29 11:48:46;;;;;;;1.70;0.88;;;;;;;14.05;66.56;99690.16;5054383;28;20029;-69
2022/12/29 11:51:25;;;;;;;3.80;0.80;;;;;;;14.08;66.17;99688.88;5071227;28;20603;-69
2022/12/29 11:53:55;;;;;;;1.95;1.02;;;;;;;14.00;66.57;99671.19;5071335;28;20032;-69
2022/12/29 11:56:34;;;;;;;1.33;0.88;;;;;;;14.01;66.47;99680.88;5087819;28;20040;-69
2022/12/29 11:59:38;;;;;;;0.82;0.70;;;;;;;13.99;65.10;99676.78;5072287;28;20419;-69
2022/12/29 12:02:31;;;;;;;0.77;0.60;;;;;;;14.00;64.82;99675.72;5072904;28;20449;-69
2022/12/29 12:05:10;;;;;;;0.57;0.45;;;;;;;14.07;64.91;99673.88;5071149;28;20485;-69
2022/12/29 12:07:46;;;;;;;0.45;0.40;;;;;;;14.15;63.68;99670.97;5070848;28;20036;-69
2022/12/29 12:10:20;;;;;;;1.10;0.35;;;;;;;14.28;62.87;99670.09;5072367;28;20045;-69
2022/12/29 12:12:53;;;;;;;0.65;0.47;;;;;;;14.36;62.68;99664.53;5070826;28;20477;-69
2022/12/29 12:15:36;;;;;;;2.50;0.52;;;;;;;14.39;62.29;99662.22;5071002;28;20194;-69
2022/12/29 12:18:10;;;;;;;0.30;0.30;;;;;;;14.39;61.91;99662.22;5070865;28;20040;-70
2022/12/29 12:20:46;;;;;;;0.82;0.50;;;;;;;14.33;62.14;99663.06;5072460;28;20040;-69
2022/12/29 12:23:36;;;;;;;0.38;0.32;;;;;;;14.31;62.02;99659.78;5072175;28;20056;-69
2022/12/29 12:26:11;;;;;;;1.00;0.60;;;;;;;14.28;63.19;99657.53;5072002;28;20051;-72
2022/12/29 12:28:53;;;;;;;0.40;0.40;;;;;;;14.14;62.68;99663.94;5071692;28;20492;-72
2022/12/29 12:31:25;;;;;;;0.30;0.30;;;;;;;14.17;63.32;99674.25;5071422;28;20094;-72
2022/12/29 12:34:00;;;;;;;1.55;0.45;;;;;;;14.04;64.56;99671.63;5072062;28;20102;-71
2022/12/29 12:36:44;;;;;;;0.43;0.43;;;;;;;14.00;64.97;99665.84;5071874;28;20128;-72
2022/12/29 12:39:15;;;;;;;1.50;0.43;;;;;;;13.98;65.73;99667.91;5071622;28;20032;-71
2022/12/29 12:42:07;;;;;;;0.35;0.30;;;;;;;14.05;64.95;99678.63;5071400;28;20035;-72
2022/12/29 12:45:17;;;;;;;0.50;0.40;;;;;;;13.99;65.64;99672.25;5070106;28;20037;-72
2022/12/29 12:48:15;;;;;;;0.93;0.50;;;;;;;14.02;65.87;99662.97;5069603;28;20048;-71
2022/12/29 12:51:19;;;;;;;0.40;0.40;;;;;;;13.97;66.68;99655.56;5071597;28;20487;-72
2022/12/29 12:54:01;;;;;;;0.70;0.70;;;;;;;14.07;66.10;99655.94;5070370;28;20206;-71
2022/12/29 12:56:35;;;;;;;0.80;0.50;;;;;;;14.01;67.20;99655.94;5071491;28;20033;-72
2022/12/29 12:59:29;;;;;;;0.77;0.60;;;;;;;13.98;67.47;99661.75;5069704;28;20043;-71
2022/12/29 13:02:21;;;;;;;1.67;0.80;;;;;;;14.08;66.89;99651.41;5071370;28;20040;-71
2022/12/29 13:05:00;;;;;;;1.88;0.73;;;;;;;14.06;67.33;99650.78;5071154;28;20543;-71
2022/12/29 13:07:55;;;;;;;1.90;0.75;;;;;;;14.00;67.28;99648.97;5071168;28;20028;-71
2022/12/29 13:10:27;;;;;;;0.60;0.50;;;;;;;13.91;67.87;99648.38;5071323;28;20032;-71
2022/12/29 13:13:05;;;;;;;0.70;0.60;;;;;;;13.89;67.87;99650.44;5071350;28;20041;-70
2022/12/29 13:15:45;;;;;;;0.73;0.63;;;;;;;13.76;68.81;99639.75;5071296;28;20482;-71
2022/12/29 13:18:22;;;;;;;1.30;0.70;;;;;;;13.75;68.63;99638.91;5071334;28;20036;-71
2022/12/29 13:20:54;;;;;;;0.38;0.35;;;;;;;13.73;69.47;99638.31;5071285;28;20474;-71
2022/12/29 13:23:34;;;;;;;0.70;0.60;;;;;;;13.67;70.91;99657.03;5071357;28;20623;-71
2022/12/29 13:26:20;;;;;;;1.52;0.60;;;;;;;13.62;71.91;99649.63;5070005;28;20082;-70
2022/12/29 13:29:18;;;;;;;1.05;0.70;;;;;;;13.55;72.14;99660.34;5071132;28;20037;-70
2022/12/29 13:31:50;;;;;;;1.08;0.80;;;;;;;13.43;73.31;99658.50;5070571;28;20055;-70
2022/12/29 13:34:58;;;;;;;0.82;0.47;;;;;;;13.35;73.89;99666.72;5070104;28;20436;-70
2022/12/29 13:37:27;;;;;;;0.70;0.70;;;;;;;13.28;76.60;99672.06;5070519;28;20044;-69
2022/12/29 13:39:59;;;;;;;0.82;0.47;;;;;;;13.00;79.11;99666.88;5071129;28;20036;-69
2022/12/29 13:42:26;;;;;;;0.50;0.40;;;;;;;12.80;81.79;99664.16;5071652;28;20043;-71
2022/12/29 13:45:05;;;;;;;0.40;0.40;;;;;;;12.62;83.02;99677.25;5075071;28;20079;-70
2022/12/29 13:47:42;;;;;;;1.15;0.60;;;;;;;12.41;86.05;99680.88;5073448;28;20032;-71
2022/12/29 13:50:24;;;;;;;0.40;0.40;;;;;;;12.31;87.99;99683.06;5073512;28;20054;-71
2022/12/29 13:52:58;;;;;;;0.85;0.50;;;;;;;12.13;89.62;99673.75;5074151;28;20049;-70
2022/12/29 13:55:39;;;;;;;0.20;0.20;;;;;;;11.89;90.74;99676.88;5074919;28;20131;-71
2022/12/29 13:58:12;;;;;;;0.52;0.43;;;;;;;11.79;93.96;99682.50;5074724;28;20044;-71
2022/12/29 14:01:14;;;;;;;0.60;0.43;;;;;;;11.70;95.96;99689.03;5074833;28;20547;-71
2022/12/29 14:03:46;;;;;;;0.43;0.30;;;;;;;11.64;97.47;99685.28;5073574;28;20048;-70
2022/12/29 14:06:29;;;;;;;0.73;0.43;;;;;;;11.50;99.54;99694.22;5074843;28;20492;-70
2022/12/29 14:09:01;;;;;;;0.20;0.20;;;;;;;11.37;100.00;99691.44;5074387;28;20055;-71
2022/12/29 14:11:35;;;;;;;0.68;0.45;;;;;;;11.31;100.00;99701.00;5074415;28;20040;-70
2022/12/29 14:14:18;;;;;;;1.45;0.70;;;;;;;11.34;100.00;99700.63;5074534;28;20513;-70
2022/12/29 14:16:44;;;;;;;0.38;0.30;;;;;;;11.32;100.00;99701.84;5074446;28;20397;-70
2022/12/29 14:19:16;;;;;;;0.20;0.20;;;;;;;11.13;100.00;99698.78;5073675;28;20045;-71
2022/12/29 14:21:54;;;;;;;1.52;1.17;;;;;;;11.20;100.00;99706.84;5074223;28;20041;-70
2022/12/29 14:24:27;;;;;;;;;;;;;;;11.04;100.00;99707.94;5075964;28;20028;-70
2022/12/29 14:26:52;;;;;;;1.00;0.65;;;;;;;11.03;100.00;99729.44;5074484;28;20301;-70
2022/12/29 14:29:21;;;;;;;0.88;0.32;;;;;;;10.91;100.00;99737.09;5072880;28;20036;-70
2022/12/29 14:31:46;;;;;;;0.85;0.43;;;;;;;10.82;100.00;99724.88;5074082;28;20041;-70
2022/12/29 14:34:12;;;;;;;0.40;0.40;;;;;;;10.67;100.00;99724.91;5074148;28;20032;-70
2022/12/29 14:36:53;;;;;;;0.43;0.40;;;;;;;10.45;100.00;99726.69;5074003;28;20419;-70
2022/12/29 14:39:44;;;;;;;0.55;0.40;;;;;;;10.32;100.00;99722.03;5072624;28;20040;-70
2022/12/29 14:42:09;;;;;;;0.30;0.30;;;;;;;10.19;100.00;99734.28;5074185;28;20385;-70
2022/12/29 14:45:01;;;;;;;0.57;0.50;;;;;;;10.14;100.00;99734.00;5074118;28;20047;-70
2022/12/29 14:47:40;;;;;;;0.55;0.40;;;;;;;10.02;100.00;99734.44;5073588;28;20032;-70
2022/12/29 14:50:15;;;;;;;0.50;0.35;;;;;;;9.94;100.00;99718.56;5073889;28;20036;-70
2022/12/29 14:52:53;;;;;;;1.05;0.55;;;;;;;10.02;100.00;99741.59;5073703;28;20389;-70
2022/12/29 14:55:49;;;;;;;0.82;0.57;;;;;;;10.04;100.00;99739.59;5073638;28;20398;-71
2022/12/29 14:58:27;;;;;;;0.55;0.30;;;;;;;10.02;100.00;99734.44;5073542;28;20064;-70
2022/12/29 15:00:54;;;;;;;0.88;0.50;;;;;;;9.98;100.00;99729.69;5073610;28;20043;-70
2022/12/29 15:03:19;;;;;;;0.80;0.45;;;;;;;10.01;100.00;99732.81;5073573;28;20043;-69
2022/12/29 15:06:09;;;;;;;0.68;0.50;;;;;;;10.01;100.00;99738.13;5073594;28;20032;-69
2022/12/29 15:08:43;;;;;;;0.30;0.30;;;;;;;9.93;100.00;99737.38;5073322;28;20119;-69
2022/12/29 15:11:14;;;;;;;1.40;0.47;;;;;;;9.97;100.00;99746.63;5073524;28;20394;-69
2022/12/29 15:13:42;;;;;;;1.20;0.50;;;;;;;9.96;100.00;99752.97;5073727;28;20051;-69
2022/12/29 15:16:33;;;;;;;0.50;0.50;;;;;;;9.94;100.00;99747.00;5073501;28;20037;-69
2022/12/29 15:18:59;;;;;;;0.38;0.38;;;;;;;9.93;100.00;99756.00;5073056;28;20040;-69
2022/12/29 15:21:31;;;;;;;0.50;0.50;;;;;;;9.92;100.00;99746.38;5073192;28;20046;-68
2022/12/29 15:23:57;;;;;;;0.82;0.63;;;;;;;9.96;100.00;99743.16;5073185;28;20036;-69
2022/12/29 15:26:35;;;;;;;1.05;0.70;;;;;;;9.91;100.00;99750.88;5072552;28;20077;-69
2022/12/29 15:29:01;;;;;;;1.05;0.70;;;;;;;9.87;100.00;99740.78;5072925;28;20039;-69
2022/12/29 15:31:26;;;;;;;2.67;0.80;;;;;;;9.89;100.00;99739.56;5071241;28;20036;-69
2022/12/29 15:33:54;;;;;;;1.08;0.80;;;;;;;9.89;100.00;99744.06;5071580;28;20040;-68
2022/12/29 15:36:23;;;;;;;1.00;0.85;;;;;;;9.90;100.00;99738.56;5071319;28;20043;-69
2022/12/29 15:38:49;;;;;;;2.00;1.02;;;;;;;9.87;100.00;99748.75;5070465;28;20063;-69
2022/12/29 15:42:03;;;;;;;1.45;0.98;;;;;;;9.88;100.00;99753.06;5070766;28;20036;-69
2022/12/29 15:44:42;;;;;;;1.17;0.77;;;;;;;9.89;100.00;99747.56;5072807;28;20041;-69
2022/12/29 15:47:19;;;;;;;3.03;1.52;;;;;;;9.92;100.00;99752.53;5072549;28;20115;-69
2022/12/29 15:49:48;;;;;;;;;;;;;;;9.90;100.00;99759.84;5073257;28;20103;-69
2022/12/29 15:52:19;;;;;;;1.95;1.02;;;;;;;9.90;100.00;99765.16;5072559;28;19916;-68
2022/12/29 15:54:45;;;;;;;2.25;1.20;;;;;;;9.95;100.00;99761.97;5071307;28;20036;-68
2022/12/29 15:57:22;;;;;;;2.03;0.98;;;;;;;9.94;100.00;99776.28;5072534;28;20029;-69
2022/12/29 15:59:48;;;;;;;2.42;1.38;;;;;;;9.97;100.00;99782.06;5073024;28;20036;-69
2022/12/29 16:02:14;;;;;;;1.13;1.02;;;;;;;9.94;100.00;99776.28;5072628;28;20044;-69
2022/12/29 16:04:40;;;;;;;3.95;1.08;;;;;;;9.96;100.00;99779.56;5070968;28;20089;-68
2022/12/29 16:07:22;;;;;;;1.13;0.60;;;;;;;9.93;100.00;99787.94;5072285;28;20048;-68
2022/12/29 16:09:49;;;;;;;0.73;0.57;;;;;;;9.89;100.00;99786.63;5072714;28;20051;-69
2022/12/29 16:12:23;;;;;;;0.80;0.73;;;;;;;9.87;100.00;99784.16;5072591;28;20044;-69
2022/12/29 16:14:54;;;;;;;6.22;0.93;;;;;;;9.85;100.00;99785.34;5071167;28;20109;-70
2022/12/29 16:17:28;;;;;;;0.70;0.70;;;;;;;9.88;100.00;99777.00;5072009;28;20147;-69
2022/12/29 16:20:00;;;;;;;2.42;0.88;;;;;;;9.92;100.00;99788.94;5072216;28;20044;-68
2022/12/29 16:22:35;;;;;;;5.13;0.90;;;;;;;9.89;100.00;99783.97;5072374;28;20032;-69
2022/12/29 16:25:13;;;;;;;1.38;0.82;;;;;;;9.89;100.00;99800.75;5072205;28;20477;-69
2022/12/29 16:27:41;;;;;;;2.00;0.80;;;;;;;9.92;100.00;99799.59;5070556;28;20464;-68
2022/12/29 16:30:19;;;;;;;0.73;0.73;;;;;;;9.92;100.00;99800.41;5071659;28;20028;-68
2022/12/29 16:32:47;;;;;;;1.60;1.10;;;;;;;9.91;100.00;99795.25;5070633;28;20397;-68
2022/12/29 16:35:27;;;;;;;5.07;1.20;;;;;;;9.87;100.00;99808.09;5072297;28;20024;-68
2022/12/29 16:38:13;;;;;;;1.10;0.88;;;;;;;9.92;100.00;99803.06;5071689;28;20063;-68
2022/12/29 16:40:50;;;;;;;1.58;0.80;;;;;;;9.90;100.00;99807.72;5071543;28;20028;-68
2022/12/29 16:43:22;;;;;;;1.52;1.10;;;;;;;9.85;100.00;99810.13;5071700;28;20048;-68
2022/12/29 16:45:47;;;;;;;1.40;0.90;;;;;;;9.84;100.00;99813.75;5071610;28;20059;-68
2022/12/29 16:48:12;;;;;;;0.70;0.70;;;;;;;9.82;100.00;99810.47;5071278;28;20445;-68
2022/12/29 16:50:41;;;;;;;2.55;0.93;;;;;;;9.79;100.00;99809.00;5071304;28;20466;-67
2022/12/29 16:53:26;;;;;;;1.55;0.88;;;;;;;9.80;100.00;99804.50;5071522;28;20493;-68
2022/12/29 16:55:53;;;;;;;2.65;0.93;;;;;;;9.82;100.00;99805.13;5071477;28;20039;-68
2022/12/29 16:58:22;;;;;;;1.85;1.10;;;;;;;9.78;100.00;99810.00;5071187;28;20032;-68
2022/12/29 17:00:48;;;;;;;0.65;0.65;;;;;;;9.74;100.00;99814.03;5071435;28;20362;-68
2022/12/29 17:03:14;;;;;;;1.85;0.90;;;;;;;9.70;100.00;99809.22;5071395;28;20036;-68
2022/12/29 17:05:40;;;;;;;1.67;1.15;;;;;;;9.69;100.00;99808.41;5071236;28;20395;-69
2022/12/29 17:08:22;;;;;;;1.55;0.80;;;;;;;9.63;100.00;99808.28;5071151;28;20127;-69
2022/12/29 17:13:40;;;;;;;2.33;0.80;;;;;;;9.61;100.00;99818.28;5071532;28;20060;-68
2022/12/29 17:16:08;;;;;;;3.22;1.45;;;;;;;9.55;100.00;99824.31;5071122;28;20097;-68
2022/12/29 17:18:34;;;;;;;1.20;1.10;;;;;;;9.51;100.00;99819.31;5071076;28;20067;-68
2022/12/29 17:21:00;;;;;;;1.27;0.80;;;;;;;9.48;100.00;99832.97;5071364;28;20025;-69
2022/12/29 17:23:26;;;;;;;3.08;1.27;;;;;;;9.47;100.00;99828.69;5071349;28;20036;-68
2022/12/29 17:25:53;;;;;;;4.25;1.33;;;;;;;9.39;100.00;99833.19;5071295;28;20044;-68